createdAt,value
2017-01-26T00:00:30.464Z,1028.39
2017-01-26T00:01:30.477Z,1028.34
2017-01-26T00:02:30.495Z,1028.35
2017-01-26T00:03:30.510Z,1028.32
2017-01-26T00:04:30.525Z,1028.33
2017-01-26T00:05:30.541Z,1028.37
2017-01-26T00:06:30.556Z,1028.39
2017-01-26T00:07:30.573Z,1028.36
2017-01-26T00:08:30.588Z,1028.45
2017-01-26T00:09:30.604Z,1028.43
2017-01-26T00:10:30.621Z,1028.44
2017-01-26T00:11:30.636Z,1028.38
2017-01-26T00:12:30.650Z,1028.39
2017-01-26T00:13:30.677Z,1028.42
2017-01-26T00:14:30.682Z,1028.4
2017-01-26T00:15:30.720Z,1028.41
2017-01-26T00:16:30.714Z,1028.39
2017-01-26T00:17:30.728Z,1028.43
2017-01-26T00:18:30.746Z,1028.47
2017-01-26T00:19:30.760Z,1028.44
2017-01-26T00:20:30.775Z,1028.46
2017-01-26T00:21:30.791Z,1028.41
2017-01-26T00:22:30.807Z,1028.38
2017-01-26T00:23:30.825Z,1028.36
2017-01-26T00:24:30.839Z,1028.34
2017-01-26T00:25:30.854Z,1028.38
2017-01-26T00:26:30.870Z,1028.33
2017-01-26T00:27:30.885Z,1028.36
2017-01-26T00:28:30.900Z,1028.37
2017-01-26T00:29:30.916Z,1028.29
2017-01-26T00:30:30.931Z,1028.3
2017-01-26T00:32:30.963Z,1028.33
2017-01-26T00:33:30.980Z,1028.3
2017-01-26T00:34:30.994Z,1028.29
2017-01-26T00:35:31.010Z,1028.29
2017-01-26T00:36:31.031Z,1028.29
2017-01-26T00:37:31.041Z,1028.28
2017-01-26T00:38:31.056Z,1028.26
2017-01-26T00:39:31.073Z,1028.23
2017-01-26T00:40:31.088Z,1028.23
2017-01-26T00:41:31.103Z,1028.24
2017-01-26T00:42:31.119Z,1028.26
2017-01-26T00:43:31.137Z,1028.26
2017-01-26T00:44:31.151Z,1028.26
2017-01-26T00:45:31.165Z,1028.2
2017-01-26T00:46:31.181Z,1028.26
2017-01-26T00:48:31.214Z,1028.21
2017-01-26T00:49:31.233Z,1028.22
2017-01-26T00:50:31.244Z,1028.27
2017-01-26T00:51:31.262Z,1028.28
2017-01-26T00:52:31.275Z,1028.25
2017-01-26T00:53:31.291Z,1028.25
2017-01-26T00:54:31.307Z,1028.18
2017-01-26T00:55:31.323Z,1028.19
2017-01-26T00:56:31.338Z,1028.22
2017-01-26T00:57:31.353Z,1028.19
2017-01-26T00:58:31.369Z,1028.22
2017-01-26T00:59:31.385Z,1028.18
2017-01-26T01:00:31.400Z,1028.19
2017-01-26T01:01:31.415Z,1028.2
2017-01-26T01:02:31.431Z,1028.2
2017-01-26T01:04:31.474Z,1028.18
2017-01-26T01:05:31.478Z,1028.18
2017-01-26T01:06:31.495Z,1028.22
2017-01-26T01:07:31.508Z,1028.22
2017-01-26T01:08:31.525Z,1028.17
2017-01-26T01:09:31.542Z,1028.21
2017-01-26T01:10:31.557Z,1028.22
2017-01-26T01:11:31.572Z,1028.19
2017-01-26T01:12:31.588Z,1028.17
2017-01-26T01:13:31.603Z,1028.19
2017-01-26T01:14:31.618Z,1028.19
2017-01-26T01:15:31.635Z,1028.15
2017-01-26T01:16:31.652Z,1028.14
2017-01-26T01:17:31.670Z,1028.19
2017-01-26T01:18:31.681Z,1028.16
2017-01-26T01:20:31.716Z,1028.21
2017-01-26T01:21:31.729Z,1028.22
2017-01-26T01:22:31.744Z,1028.21
2017-01-26T01:23:31.761Z,1028.17
2017-01-26T01:24:31.776Z,1028.18
2017-01-26T01:25:31.790Z,1028.13
2017-01-26T01:26:31.806Z,1028.12
2017-01-26T01:27:31.822Z,1028.11
2017-01-26T01:28:31.838Z,1028.13
2017-01-26T01:29:31.854Z,1028.12
2017-01-26T01:30:31.869Z,1028.11
2017-01-26T01:31:31.885Z,1028.11
2017-01-26T01:32:31.901Z,1028.11
2017-01-26T01:33:31.917Z,1028.11
2017-01-26T01:35:31.948Z,1028.08
2017-01-26T01:36:31.963Z,1028.07
2017-01-26T01:37:31.997Z,1028.1
2017-01-26T01:38:31.995Z,1028.11
2017-01-26T01:39:32.011Z,1028.09
2017-01-26T01:40:32.028Z,1028.09
2017-01-26T01:41:32.041Z,1028.09
2017-01-26T01:42:32.059Z,1028.09
2017-01-26T01:43:32.073Z,1028.12
2017-01-26T01:44:32.088Z,1028.08
2017-01-26T01:45:32.104Z,1028.1
2017-01-26T01:46:32.120Z,1028.11
2017-01-26T01:47:32.135Z,1028.11
2017-01-26T01:48:32.151Z,1028.09
2017-01-26T01:49:32.167Z,1028.06
2017-01-26T01:50:32.183Z,1028.1
2017-01-26T01:51:32.197Z,1028.1
2017-01-26T01:52:32.213Z,1028.1
2017-01-26T01:53:32.229Z,1028.1
2017-01-26T01:54:32.244Z,1028.12
2017-01-26T01:55:32.261Z,1028.11
2017-01-26T01:56:32.276Z,1028.1
2017-01-26T01:57:32.291Z,1028.1
2017-01-26T01:58:32.305Z,1028.07
2017-01-26T01:59:32.323Z,1028.07
2017-01-26T02:00:32.338Z,1028.11
2017-01-26T02:01:32.354Z,1028.11
2017-01-26T02:02:32.368Z,1028.1
2017-01-26T02:03:32.385Z,1028.15
2017-01-26T02:04:32.400Z,1028.12
2017-01-26T02:05:32.417Z,1028.17
2017-01-26T02:07:32.447Z,1028.17
2017-01-26T02:08:32.463Z,1028.19
2017-01-26T02:09:32.477Z,1028.23
2017-01-26T02:10:32.493Z,1028.15
2017-01-26T02:11:32.525Z,1028.15
2017-01-26T02:12:32.525Z,1028.14
2017-01-26T02:13:32.540Z,1028.08
2017-01-26T02:14:32.562Z,1028.09
2017-01-26T02:15:32.571Z,1028.09
2017-01-26T02:16:32.586Z,1028.1
2017-01-26T02:17:32.607Z,1028.08
2017-01-26T02:18:32.618Z,1028.04
2017-01-26T02:19:32.633Z,1028.05
2017-01-26T02:20:32.649Z,1028.05
2017-01-26T02:21:32.664Z,1028.05
2017-01-26T02:23:32.696Z,1028.06
2017-01-26T02:24:32.711Z,1028.03
2017-01-26T02:25:32.726Z,1028.11
2017-01-26T02:26:32.742Z,1028.07
2017-01-26T02:27:32.756Z,1028.13
2017-01-26T02:28:32.773Z,1028.06
2017-01-26T02:29:32.788Z,1028.08
2017-01-26T02:30:32.805Z,1028.05
2017-01-26T02:31:32.819Z,1028.06
2017-01-26T02:32:32.835Z,1028.02
2017-01-26T02:33:32.850Z,1028.05
2017-01-26T02:34:32.867Z,1028
2017-01-26T02:35:32.881Z,1027.98
2017-01-26T02:36:32.897Z,1028.02
2017-01-26T02:37:32.912Z,1027.98
2017-01-26T02:39:32.943Z,1027.99
2017-01-26T02:40:32.962Z,1027.97
2017-01-26T02:41:32.975Z,1027.96
2017-01-26T02:42:32.991Z,1027.93
2017-01-26T02:43:33.005Z,1027.95
2017-01-26T02:44:33.021Z,1027.9
2017-01-26T02:45:33.036Z,1027.93
2017-01-26T02:46:33.052Z,1027.93
2017-01-26T02:47:33.067Z,1027.92
2017-01-26T02:48:33.084Z,1027.9
2017-01-26T02:49:33.124Z,1027.9
2017-01-26T02:50:33.114Z,1027.87
2017-01-26T02:51:33.129Z,1027.91
2017-01-26T02:52:33.145Z,1027.91
2017-01-26T02:53:33.159Z,1027.9
2017-01-26T02:55:33.191Z,1027.9
2017-01-26T02:56:33.206Z,1027.89
2017-01-26T02:57:33.221Z,1027.86
2017-01-26T02:58:33.237Z,1027.9
2017-01-26T02:59:33.253Z,1027.89
2017-01-26T03:00:33.268Z,1027.89
2017-01-26T03:01:33.283Z,1027.9
2017-01-26T03:02:33.298Z,1027.93
2017-01-26T03:03:33.313Z,1027.91
2017-01-26T03:04:33.328Z,1027.91
2017-01-26T03:05:33.345Z,1027.92
2017-01-26T03:06:33.359Z,1027.95
2017-01-26T03:07:33.375Z,1027.97
2017-01-26T03:08:33.392Z,1028
2017-01-26T03:10:33.423Z,1028.01
2017-01-26T03:11:33.436Z,1028.02
2017-01-26T03:12:33.451Z,1028.04
2017-01-26T03:13:33.467Z,1028.04
2017-01-26T03:14:33.482Z,1028.07
2017-01-26T03:15:33.497Z,1028.04
2017-01-26T03:16:33.512Z,1028.04
2017-01-26T03:17:33.530Z,1028.04
2017-01-26T03:18:33.544Z,1028.03
2017-01-26T03:19:33.558Z,1028.02
2017-01-26T03:20:33.574Z,1028
2017-01-26T03:21:33.594Z,1028.02
2017-01-26T03:22:33.604Z,1028
2017-01-26T03:23:33.620Z,1027.99
2017-01-26T03:24:33.635Z,1028.05
2017-01-26T03:25:33.650Z,1028.03
2017-01-26T03:26:33.665Z,1028.06
2017-01-26T03:27:33.681Z,1028.09
2017-01-26T03:28:33.696Z,1028.05
2017-01-26T03:29:33.711Z,1028.06
2017-01-26T03:30:33.727Z,1028.05
2017-01-26T03:31:33.742Z,1028.01
2017-01-26T03:32:33.758Z,1028.04
2017-01-26T03:33:33.773Z,1028.03
2017-01-26T03:34:33.797Z,1028.07
2017-01-26T03:35:33.803Z,1028.03
2017-01-26T03:36:33.819Z,1028.03
2017-01-26T03:37:33.833Z,1028.01
2017-01-26T03:38:33.849Z,1028.04
2017-01-26T03:39:33.864Z,1027.96
2017-01-26T03:40:33.878Z,1028.06
2017-01-26T03:42:33.910Z,1028.06
2017-01-26T03:43:33.925Z,1028.07
2017-01-26T03:44:33.939Z,1028.02
2017-01-26T03:45:33.954Z,1028
2017-01-26T03:46:33.970Z,1028
2017-01-26T03:47:33.986Z,1027.93
2017-01-26T03:48:34.000Z,1027.96
2017-01-26T03:49:34.015Z,1027.98
2017-01-26T03:50:34.031Z,1027.96
2017-01-26T03:51:34.045Z,1027.93
2017-01-26T03:52:34.061Z,1027.9
2017-01-26T03:53:34.076Z,1027.88
2017-01-26T03:54:34.093Z,1027.85
2017-01-26T03:55:34.105Z,1027.88
2017-01-26T03:56:34.122Z,1027.88
2017-01-26T03:58:34.152Z,1027.89
2017-01-26T03:59:34.167Z,1027.85
2017-01-26T04:00:34.182Z,1027.86
2017-01-26T04:01:34.197Z,1027.85
2017-01-26T04:02:34.212Z,1027.88
2017-01-26T04:03:34.227Z,1027.85
2017-01-26T04:04:34.242Z,1027.84
2017-01-26T04:05:34.259Z,1027.83
2017-01-26T04:06:34.273Z,1027.84
2017-01-26T04:07:34.289Z,1027.78
2017-01-26T04:08:34.303Z,1027.8
2017-01-26T04:09:34.319Z,1027.77
2017-01-26T04:10:34.333Z,1027.79
2017-01-26T04:11:34.375Z,1027.8
2017-01-26T04:12:34.364Z,1027.77
2017-01-26T04:14:34.394Z,1027.77
2017-01-26T04:15:34.411Z,1027.76
2017-01-26T04:16:34.428Z,1027.76
2017-01-26T04:17:34.440Z,1027.76
2017-01-26T04:18:34.457Z,1027.74
2017-01-26T04:19:34.470Z,1027.75
2017-01-26T04:20:34.487Z,1027.72
2017-01-26T04:21:34.500Z,1027.66
2017-01-26T04:22:34.516Z,1027.69
2017-01-26T04:23:34.531Z,1027.65
2017-01-26T04:24:34.546Z,1027.63
2017-01-26T04:25:34.562Z,1027.61
2017-01-26T04:26:34.577Z,1027.62
2017-01-26T04:27:34.592Z,1027.63
2017-01-26T04:28:34.607Z,1027.61
2017-01-26T04:30:34.637Z,1027.58
2017-01-26T04:31:34.653Z,1027.56
2017-01-26T04:32:34.668Z,1027.59
2017-01-26T04:33:34.683Z,1027.56
2017-01-26T04:34:34.698Z,1027.56
2017-01-26T04:35:34.713Z,1027.56
2017-01-26T04:36:34.729Z,1027.57
2017-01-26T04:37:34.747Z,1027.56
2017-01-26T04:38:34.760Z,1027.53
2017-01-26T04:39:34.773Z,1027.51
2017-01-26T04:40:34.789Z,1027.48
2017-01-26T04:41:34.805Z,1027.51
2017-01-26T04:42:34.819Z,1027.48
2017-01-26T04:43:34.835Z,1027.49
2017-01-26T04:45:34.866Z,1027.48
2017-01-26T04:46:34.880Z,1027.46
2017-01-26T04:47:34.895Z,1027.48
2017-01-26T04:48:34.910Z,1027.49
2017-01-26T04:49:34.927Z,1027.46
2017-01-26T04:50:34.944Z,1027.46
2017-01-26T04:51:34.984Z,1027.47
2017-01-26T04:52:34.971Z,1027.49
2017-01-26T04:53:34.986Z,1027.5
2017-01-26T04:54:35.001Z,1027.47
2017-01-26T04:55:35.016Z,1027.55
2017-01-26T04:56:35.032Z,1027.54
2017-01-26T04:57:35.046Z,1027.52
2017-01-26T04:58:35.061Z,1027.51
2017-01-26T04:59:35.076Z,1027.5
2017-01-26T05:00:35.092Z,1027.49
2017-01-26T05:01:35.105Z,1027.45
2017-01-26T05:02:35.121Z,1027.43
2017-01-26T05:03:35.136Z,1027.47
2017-01-26T05:04:35.150Z,1027.39
2017-01-26T05:05:35.166Z,1027.44
2017-01-26T05:06:35.181Z,1027.46
2017-01-26T05:07:35.202Z,1027.43
2017-01-26T05:08:35.209Z,1027.44
2017-01-26T05:09:35.224Z,1027.38
2017-01-26T05:10:35.239Z,1027.43
2017-01-26T05:11:35.256Z,1027.41
2017-01-26T05:12:35.269Z,1027.39
2017-01-26T05:13:35.284Z,1027.35
2017-01-26T05:14:35.299Z,1027.38
2017-01-26T05:15:35.314Z,1027.37
2017-01-26T05:17:35.344Z,1027.36
2017-01-26T05:18:35.358Z,1027.4
2017-01-26T05:19:35.373Z,1027.38
2017-01-26T05:20:35.392Z,1027.34
2017-01-26T05:21:35.403Z,1027.36
2017-01-26T05:22:35.418Z,1027.34
2017-01-26T05:23:35.433Z,1027.37
2017-01-26T05:24:35.447Z,1027.33
2017-01-26T05:25:35.461Z,1027.35
2017-01-26T05:26:35.475Z,1027.36
2017-01-26T05:27:35.491Z,1027.34
2017-01-26T05:28:35.506Z,1027.36
2017-01-26T05:29:35.521Z,1027.3
2017-01-26T05:30:35.535Z,1027.28
2017-01-26T05:31:35.550Z,1027.37
2017-01-26T05:33:35.579Z,1027.34
2017-01-26T05:34:35.594Z,1027.32
2017-01-26T05:35:35.608Z,1027.29
2017-01-26T05:36:35.628Z,1027.32
2017-01-26T05:37:35.637Z,1027.32
2017-01-26T05:38:35.651Z,1027.34
2017-01-26T05:39:35.666Z,1027.37
2017-01-26T05:40:35.681Z,1027.36
2017-01-26T05:41:35.696Z,1027.35
2017-01-26T05:42:35.710Z,1027.34
2017-01-26T05:43:35.726Z,1027.36
2017-01-26T05:44:35.742Z,1027.34
2017-01-26T05:45:35.754Z,1027.35
2017-01-26T05:46:35.770Z,1027.36
2017-01-26T05:47:35.784Z,1027.39
2017-01-26T05:49:35.813Z,1027.38
2017-01-26T05:50:35.827Z,1027.34
2017-01-26T05:51:35.842Z,1027.33
2017-01-26T05:52:35.856Z,1027.34
2017-01-26T05:53:35.872Z,1027.37
2017-01-26T05:54:35.886Z,1027.36
2017-01-26T05:55:35.900Z,1027.37
2017-01-26T05:56:35.915Z,1027.43
2017-01-26T05:57:35.929Z,1027.42
2017-01-26T05:58:35.945Z,1027.41
2017-01-26T05:59:35.960Z,1027.38
2017-01-26T06:00:35.975Z,1027.35
2017-01-26T06:01:35.988Z,1027.34
2017-01-26T06:02:36.004Z,1027.35
2017-01-26T06:03:36.016Z,1027.35
2017-01-26T06:05:36.048Z,1027.39
2017-01-26T06:06:36.161Z,1027.38
2017-01-26T06:07:36.076Z,1027.4
2017-01-26T06:08:36.091Z,1027.41
2017-01-26T06:09:36.106Z,1027.45
2017-01-26T06:10:36.120Z,1027.41
2017-01-26T06:11:36.135Z,1027.35
2017-01-26T06:12:36.150Z,1027.42
2017-01-26T06:13:36.164Z,1027.39
2017-01-26T06:14:36.178Z,1027.39
2017-01-26T06:15:36.202Z,1027.4
2017-01-26T06:16:36.208Z,1027.41
2017-01-26T06:17:36.248Z,1027.4
2017-01-26T06:18:36.238Z,1027.39
2017-01-26T06:20:36.267Z,1027.42
2017-01-26T06:21:36.282Z,1027.41
2017-01-26T06:22:36.296Z,1027.38
2017-01-26T06:23:36.312Z,1027.4
2017-01-26T06:24:36.327Z,1027.37
2017-01-26T06:25:36.341Z,1027.35
2017-01-26T06:26:36.355Z,1027.35
2017-01-26T06:27:36.370Z,1027.36
2017-01-26T06:28:36.386Z,1027.38
2017-01-26T06:29:36.400Z,1027.35
2017-01-26T06:30:36.414Z,1027.37
2017-01-26T06:31:36.430Z,1027.35
2017-01-26T06:32:36.443Z,1027.41
2017-01-26T06:33:36.460Z,1027.34
2017-01-26T06:34:36.474Z,1027.36
2017-01-26T06:35:36.488Z,1027.36
2017-01-26T06:36:36.503Z,1027.35
2017-01-26T06:37:36.517Z,1027.35
2017-01-26T06:38:36.532Z,1027.32
2017-01-26T06:39:36.546Z,1027.32
2017-01-26T06:40:36.561Z,1027.32
2017-01-26T06:41:36.576Z,1027.33
2017-01-26T06:42:36.591Z,1027.3
2017-01-26T06:43:36.605Z,1027.29
2017-01-26T06:44:36.620Z,1027.33
2017-01-26T06:45:36.636Z,1027.33
2017-01-26T06:46:36.649Z,1027.33
2017-01-26T06:47:36.664Z,1027.32
2017-01-26T06:48:36.678Z,1027.3
2017-01-26T06:49:36.694Z,1027.36
2017-01-26T06:50:36.707Z,1027.35
2017-01-26T06:52:36.737Z,1027.36
2017-01-26T06:53:36.752Z,1027.37
2017-01-26T06:54:36.767Z,1027.4
2017-01-26T06:55:36.812Z,1027.36
2017-01-26T06:56:36.796Z,1027.39
2017-01-26T06:57:36.810Z,1027.4
2017-01-26T06:58:36.825Z,1027.4
2017-01-26T06:59:36.839Z,1027.42
2017-01-26T07:00:36.857Z,1027.42
2017-01-26T07:01:36.869Z,1027.46
2017-01-26T07:02:36.883Z,1027.42
2017-01-26T07:03:36.899Z,1027.47
2017-01-26T07:04:36.913Z,1027.49
2017-01-26T07:05:36.929Z,1027.46
2017-01-26T07:06:36.942Z,1027.46
2017-01-26T07:08:36.972Z,1027.5
2017-01-26T07:09:36.988Z,1027.51
2017-01-26T07:10:37.001Z,1027.55
2017-01-26T07:11:37.017Z,1027.55
2017-01-26T07:12:37.030Z,1027.58
2017-01-26T07:13:37.045Z,1027.57
2017-01-26T07:14:37.061Z,1027.57
2017-01-26T07:15:37.075Z,1027.56
2017-01-26T07:16:37.089Z,1027.54
2017-01-26T07:17:37.105Z,1027.57
2017-01-26T07:18:37.119Z,1027.56
2017-01-26T07:19:37.134Z,1027.54
2017-01-26T07:20:37.150Z,1027.55
2017-01-26T07:21:37.163Z,1027.58
2017-01-26T07:22:37.178Z,1027.58
2017-01-26T07:24:37.207Z,1027.52
2017-01-26T07:25:37.222Z,1027.55
2017-01-26T07:26:37.237Z,1027.56
2017-01-26T07:27:37.252Z,1027.58
2017-01-26T07:28:37.267Z,1027.61
2017-01-26T07:29:37.282Z,1027.59
2017-01-26T07:30:37.296Z,1027.6
2017-01-26T07:31:37.312Z,1027.58
2017-01-26T07:32:37.331Z,1027.6
2017-01-26T07:33:37.341Z,1027.59
2017-01-26T07:34:37.356Z,1027.62
2017-01-26T07:35:37.370Z,1027.58
2017-01-26T07:36:37.386Z,1027.61
2017-01-26T07:37:37.401Z,1027.67
2017-01-26T07:38:37.416Z,1027.63
2017-01-26T07:40:37.446Z,1027.67
2017-01-26T07:41:37.462Z,1027.66
2017-01-26T07:42:37.476Z,1027.71
2017-01-26T07:43:37.491Z,1027.74
2017-01-26T07:44:37.507Z,1027.73
2017-01-26T07:45:37.521Z,1027.77
2017-01-26T07:46:37.537Z,1027.76
2017-01-26T07:47:37.552Z,1027.8
2017-01-26T07:48:37.568Z,1027.76
2017-01-26T07:49:37.584Z,1027.75
2017-01-26T07:50:37.598Z,1027.79
2017-01-26T07:51:37.614Z,1027.81
2017-01-26T07:52:37.628Z,1027.79
2017-01-26T07:53:37.645Z,1027.81
2017-01-26T07:55:37.676Z,1027.86
2017-01-26T07:56:37.690Z,1027.83
2017-01-26T07:57:37.706Z,1027.85
2017-01-26T07:58:37.722Z,1027.82
2017-01-26T07:59:37.737Z,1027.85
2017-01-26T08:00:37.753Z,1027.85
2017-01-26T08:01:37.766Z,1027.84
2017-01-26T08:02:37.783Z,1027.85
2017-01-26T08:03:37.797Z,1027.83
2017-01-26T08:04:37.814Z,1027.84
2017-01-26T08:05:37.828Z,1027.84
2017-01-26T08:06:37.844Z,1027.8
2017-01-26T08:07:37.859Z,1027.81
2017-01-26T08:08:37.874Z,1027.85
2017-01-26T08:09:37.889Z,1027.86
2017-01-26T08:10:37.905Z,1027.8
2017-01-26T08:11:37.920Z,1027.86
2017-01-26T08:12:37.936Z,1027.82
2017-01-26T08:13:37.952Z,1027.88
2017-01-26T08:14:37.966Z,1027.88
2017-01-26T08:15:37.982Z,1027.85
2017-01-26T08:16:37.997Z,1027.89
2017-01-26T08:17:38.013Z,1027.88
2017-01-26T08:18:38.028Z,1027.84
2017-01-26T08:19:38.044Z,1027.86
2017-01-26T08:20:38.061Z,1027.84
2017-01-26T08:21:38.076Z,1027.81
2017-01-26T08:22:38.091Z,1027.85
2017-01-26T08:23:38.107Z,1027.82
2017-01-26T08:24:38.123Z,1027.78
2017-01-26T08:25:38.137Z,1027.85
2017-01-26T08:27:38.170Z,1027.8
2017-01-26T08:28:38.185Z,1027.78
2017-01-26T08:29:38.202Z,1027.78
2017-01-26T08:30:38.218Z,1027.79
2017-01-26T08:31:38.238Z,1027.78
2017-01-26T08:32:38.250Z,1027.82
2017-01-26T08:33:38.265Z,1027.8
2017-01-26T08:34:38.282Z,1027.83
2017-01-26T08:35:38.298Z,1027.82
2017-01-26T08:36:38.313Z,1027.83
2017-01-26T08:37:38.330Z,1027.86
2017-01-26T08:38:38.346Z,1027.84
2017-01-26T08:39:38.362Z,1027.86
2017-01-26T08:40:38.377Z,1027.84
2017-01-26T08:41:38.395Z,1027.83
2017-01-26T08:43:38.427Z,1027.86
2017-01-26T08:44:38.443Z,1027.85
2017-01-26T08:45:38.460Z,1027.85
2017-01-26T08:46:38.476Z,1027.82
2017-01-26T08:47:38.492Z,1027.86
2017-01-26T08:48:38.508Z,1027.8
2017-01-26T08:49:38.526Z,1027.84
2017-01-26T08:50:38.542Z,1027.89
2017-01-26T08:51:38.558Z,1027.82
2017-01-26T08:52:38.575Z,1027.8
2017-01-26T08:53:38.591Z,1027.82
2017-01-26T08:54:38.608Z,1027.85
2017-01-26T08:55:38.624Z,1027.81
2017-01-26T08:56:38.641Z,1027.86
2017-01-26T08:57:38.658Z,1027.81
2017-01-26T08:59:38.690Z,1027.88
2017-01-26T09:00:38.707Z,1027.82
2017-01-26T09:01:38.725Z,1027.84
2017-01-26T09:02:38.739Z,1027.88
2017-01-26T09:03:38.756Z,1027.84
2017-01-26T09:04:38.773Z,1027.84
2017-01-26T09:05:38.792Z,1027.86
2017-01-26T09:06:38.805Z,1027.83
2017-01-26T09:07:38.825Z,1027.83
2017-01-26T09:08:38.841Z,1027.89
2017-01-26T09:09:38.856Z,1027.85
2017-01-26T09:10:38.872Z,1027.86
2017-01-26T09:11:38.891Z,1027.9
2017-01-26T09:12:38.906Z,1027.83
2017-01-26T09:13:38.922Z,1027.83
2017-01-26T09:15:38.956Z,1027.8
2017-01-26T09:16:38.973Z,1027.84
2017-01-26T09:17:38.990Z,1027.88
2017-01-26T09:18:39.006Z,1027.84
2017-01-26T09:19:39.025Z,1027.87
2017-01-26T09:20:39.038Z,1027.89
2017-01-26T09:21:39.054Z,1027.85
2017-01-26T09:22:39.077Z,1027.85
2017-01-26T09:23:39.090Z,1027.89
2017-01-26T09:24:39.104Z,1027.95
2017-01-26T09:25:39.121Z,1027.93
2017-01-26T09:26:39.138Z,1027.93
2017-01-26T09:27:39.154Z,1027.9
2017-01-26T09:28:39.171Z,1027.93
2017-01-26T09:30:39.204Z,1027.89
2017-01-26T09:31:39.220Z,1027.82
2017-01-26T09:32:39.237Z,1027.79
2017-01-26T09:33:39.254Z,1027.75
2017-01-26T09:34:39.271Z,1027.79
2017-01-26T09:35:39.286Z,1027.8
2017-01-26T09:36:39.304Z,1027.82
2017-01-26T09:37:39.320Z,1027.84
2017-01-26T09:38:39.336Z,1027.81
2017-01-26T09:39:39.353Z,1027.82
2017-01-26T09:40:39.370Z,1027.79
2017-01-26T09:41:39.387Z,1027.83
2017-01-26T09:42:39.406Z,1027.8
2017-01-26T09:43:39.420Z,1027.79
2017-01-26T09:44:39.435Z,1027.82
2017-01-26T09:45:39.454Z,1027.82
2017-01-26T09:46:39.469Z,1027.77
2017-01-26T09:47:39.486Z,1027.81
2017-01-26T09:48:39.503Z,1027.82
2017-01-26T09:49:39.519Z,1027.79
2017-01-26T09:50:39.542Z,1027.83
2017-01-26T09:51:39.552Z,1027.75
2017-01-26T09:52:39.570Z,1027.81
2017-01-26T09:53:39.585Z,1027.75
2017-01-26T09:54:39.602Z,1027.8
2017-01-26T09:55:39.618Z,1027.74
2017-01-26T09:56:39.638Z,1027.74
2017-01-26T09:57:39.651Z,1027.81
2017-01-26T09:58:39.669Z,1027.75
2017-01-26T09:59:39.686Z,1027.79
2017-01-26T10:00:39.701Z,1027.75
2017-01-26T10:02:39.735Z,1027.71
2017-01-26T10:03:39.752Z,1027.69
2017-01-26T10:04:39.768Z,1027.72
2017-01-26T10:05:39.784Z,1027.72
2017-01-26T10:06:39.802Z,1027.7
2017-01-26T10:07:39.818Z,1027.73
2017-01-26T10:08:39.834Z,1027.7
2017-01-26T10:09:39.851Z,1027.7
2017-01-26T10:10:39.867Z,1027.68
2017-01-26T10:11:39.884Z,1027.74
2017-01-26T10:12:39.901Z,1027.67
2017-01-26T10:13:39.917Z,1027.75
2017-01-26T10:14:39.935Z,1027.69
2017-01-26T10:15:39.951Z,1027.69
2017-01-26T10:16:39.967Z,1027.71
2017-01-26T10:18:40.001Z,1027.7
2017-01-26T10:19:40.017Z,1027.71
2017-01-26T10:20:40.034Z,1027.71
2017-01-26T10:21:40.051Z,1027.76
2017-01-26T10:22:40.067Z,1027.67
2017-01-26T10:23:40.084Z,1027.65
2017-01-26T10:24:40.101Z,1027.64
2017-01-26T10:25:40.120Z,1027.66
2017-01-26T10:26:40.142Z,1027.58
2017-01-26T10:27:40.156Z,1027.61
2017-01-26T10:28:40.168Z,1027.59
2017-01-26T10:29:40.189Z,1027.6
2017-01-26T10:30:40.200Z,1027.55
2017-01-26T10:31:40.218Z,1027.56
2017-01-26T10:32:40.234Z,1027.55
2017-01-26T10:34:40.268Z,1027.53
2017-01-26T10:35:40.284Z,1027.5
2017-01-26T10:36:40.302Z,1027.54
2017-01-26T10:37:40.317Z,1027.55
2017-01-26T10:38:40.334Z,1027.5
2017-01-26T10:39:40.351Z,1027.54
2017-01-26T10:40:40.367Z,1027.47
2017-01-26T10:41:40.384Z,1027.5
2017-01-26T10:42:40.400Z,1027.49
2017-01-26T10:43:40.418Z,1027.48
2017-01-26T10:44:40.433Z,1027.46
2017-01-26T10:45:40.451Z,1027.44
2017-01-26T10:46:40.468Z,1027.42
2017-01-26T10:47:40.486Z,1027.42
2017-01-26T10:48:40.501Z,1027.4
2017-01-26T10:50:40.535Z,1027.36
2017-01-26T10:51:40.551Z,1027.36
2017-01-26T10:52:40.568Z,1027.38
2017-01-26T10:53:40.585Z,1027.3
2017-01-26T10:54:40.602Z,1027.33
2017-01-26T10:55:40.618Z,1027.32
2017-01-26T10:56:40.635Z,1027.3
2017-01-26T10:57:40.652Z,1027.29
2017-01-26T10:58:40.669Z,1027.31
2017-01-26T10:59:40.685Z,1027.31
2017-01-26T11:00:40.703Z,1027.31
2017-01-26T11:01:40.722Z,1027.27
2017-01-26T11:02:40.737Z,1027.36
2017-01-26T11:03:40.754Z,1027.32
2017-01-26T11:05:40.789Z,1027.23
2017-01-26T11:06:40.806Z,1027.29
2017-01-26T11:07:40.822Z,1027.27
2017-01-26T11:08:40.839Z,1027.23
2017-01-26T11:09:40.862Z,1027.26
2017-01-26T11:10:40.896Z,1027.27
2017-01-26T11:11:40.890Z,1027.21
2017-01-26T11:12:40.907Z,1027.18
2017-01-26T11:13:40.923Z,1027.2
2017-01-26T11:14:40.940Z,1027.19
2017-01-26T11:15:40.957Z,1027.11
2017-01-26T11:16:40.975Z,1027.16
2017-01-26T11:17:40.991Z,1027.08
2017-01-26T11:18:41.007Z,1027.09
2017-01-26T11:19:41.027Z,1027.12
2017-01-26T11:20:41.095Z,1027.12
2017-01-26T11:21:41.058Z,1027.12
2017-01-26T11:22:41.075Z,1027.13
2017-01-26T11:23:41.092Z,1027.12
2017-01-26T11:24:41.108Z,1027.1
2017-01-26T11:25:41.125Z,1027.1
2017-01-26T11:26:41.142Z,1027.1
2017-01-26T11:27:41.159Z,1027.09
2017-01-26T11:28:41.175Z,1027.07
2017-01-26T11:29:41.193Z,1027.03
2017-01-26T11:30:41.210Z,1027.03
2017-01-26T11:31:41.528Z,1027.03
2017-01-26T11:32:41.244Z,1027.03
2017-01-26T11:33:41.261Z,1027
2017-01-26T11:34:41.278Z,1026.95
2017-01-26T11:35:41.295Z,1026.93
2017-01-26T11:37:41.328Z,1026.95
2017-01-26T11:38:46.314Z,1026.9
2017-01-26T11:39:46.265Z,1026.94
2017-01-26T11:40:46.282Z,1026.86
2017-01-26T11:41:46.299Z,1026.9
2017-01-26T11:42:46.316Z,1026.94
2017-01-26T11:43:46.333Z,1026.88
2017-01-26T11:44:46.350Z,1026.84
2017-01-26T11:45:46.367Z,1026.8
2017-01-26T11:46:46.385Z,1026.83
2017-01-26T11:47:46.403Z,1026.81
2017-01-26T11:49:46.437Z,1026.83
2017-01-26T11:50:46.454Z,1026.83
2017-01-26T11:51:46.470Z,1026.76
2017-01-26T11:52:46.487Z,1026.88
2017-01-26T11:53:46.504Z,1026.81
2017-01-26T11:54:46.521Z,1026.8
2017-01-26T11:55:46.538Z,1026.82
2017-01-26T11:56:46.555Z,1026.76
2017-01-26T11:57:46.573Z,1026.8
2017-01-26T11:58:46.590Z,1026.78
2017-01-26T11:59:46.607Z,1026.81
2017-01-26T12:00:46.624Z,1026.74
2017-01-26T12:01:46.642Z,1026.7
2017-01-26T12:02:46.659Z,1026.69
2017-01-26T12:04:46.694Z,1026.67
2017-01-26T12:05:46.711Z,1026.67
2017-01-26T12:06:46.728Z,1026.66
2017-01-26T12:07:46.746Z,1026.66
2017-01-26T12:08:46.764Z,1026.64
2017-01-26T12:09:46.780Z,1026.59
2017-01-26T12:10:46.798Z,1026.62
2017-01-26T12:11:46.815Z,1026.61
2017-01-26T12:12:46.833Z,1026.62
2017-01-26T12:13:46.851Z,1026.55
2017-01-26T12:14:46.868Z,1026.57
2017-01-26T12:15:46.886Z,1026.55
2017-01-26T12:16:46.903Z,1026.58
2017-01-26T12:17:46.920Z,1026.56
2017-01-26T12:18:46.939Z,1026.57
2017-01-26T12:19:46.956Z,1026.52
2017-01-26T12:20:46.972Z,1026.55
2017-01-26T12:21:46.992Z,1026.56
2017-01-26T12:22:47.008Z,1026.51
2017-01-26T12:23:47.025Z,1026.51
2017-01-26T12:24:47.043Z,1026.48
2017-01-26T12:25:47.061Z,1026.49
2017-01-26T12:26:47.078Z,1026.48
2017-01-26T12:27:47.097Z,1026.47
2017-01-26T12:28:47.113Z,1026.49
2017-01-26T12:29:47.134Z,1026.45
2017-01-26T12:30:47.149Z,1026.44
2017-01-26T12:31:47.166Z,1026.45
2017-01-26T12:32:47.241Z,1026.47
2017-01-26T12:33:47.202Z,1026.37
2017-01-26T12:34:47.219Z,1026.34
2017-01-26T12:36:47.279Z,1026.39
2017-01-26T12:37:47.273Z,1026.31
2017-01-26T12:38:47.290Z,1026.32
2017-01-26T12:39:47.312Z,1026.31
2017-01-26T12:40:47.326Z,1026.29
2017-01-26T12:41:47.344Z,1026.24
2017-01-26T12:42:47.361Z,1026.24
2017-01-26T12:43:47.378Z,1026.25
2017-01-26T12:44:47.397Z,1026.29
2017-01-26T12:45:47.414Z,1026.23
2017-01-26T12:46:47.432Z,1026.23
2017-01-26T12:47:47.449Z,1026.2